createdAt,value
2023-01-22T00:00:07.690Z,99269.63
2023-01-22T00:02:55.395Z,99276.69
2023-01-22T00:05:22.156Z,99282.97
2023-01-22T00:07:49.293Z,99278.44
2023-01-22T00:10:16.859Z,99282.91
2023-01-22T00:12:44.217Z,99285.50
2023-01-22T00:15:11.079Z,99286.47
2023-01-22T00:17:38.209Z,99286.34
2023-01-22T00:20:06.559Z,99288.22
2023-01-22T00:22:33.676Z,99295.31
2023-01-22T00:25:00.494Z,99296.31
2023-01-22T00:27:27.655Z,99305.03
2023-01-22T00:29:54.460Z,99297.31
2023-01-22T00:32:21.718Z,99295.59
2023-01-22T00:34:52.352Z,99293.63
2023-01-22T00:37:20.346Z,99298.25
2023-01-22T00:39:47.328Z,99298.97
2023-01-22T00:42:14.385Z,99303.59
2023-01-22T00:44:41.187Z,99309.66
2023-01-22T00:47:08.291Z,99305.22
2023-01-22T00:49:35.025Z,99316.81
2023-01-22T00:52:02.163Z,99314.06
2023-01-22T00:54:30.291Z,99312.31
2023-01-22T00:56:57.409Z,99321.06
2023-01-22T00:59:24.245Z,99321.00
2023-01-22T01:01:51.467Z,99322.75
2023-01-22T01:04:18.323Z,99320.34
2023-01-22T01:06:45.600Z,99323.22
2023-01-22T01:09:12.578Z,99329.22
2023-01-22T01:11:39.621Z,99325.75
2023-01-22T01:14:06.465Z,99320.28
2023-01-22T01:16:33.670Z,99319.16
2023-01-22T01:19:05.199Z,99324.50
2023-01-22T01:21:32.395Z,99323.91
2023-01-22T01:23:59.326Z,99322.94
2023-01-22T01:26:26.478Z,99330.81
2023-01-22T01:28:53.407Z,99330.94
2023-01-22T01:31:21.678Z,99330.94
2023-01-22T01:33:48.893Z,99324.81
2023-01-22T01:36:35.486Z,99320.94
2023-01-22T01:39:07.590Z,99318.41
2023-01-22T01:41:34.675Z,99331.69
2023-01-22T01:44:08.587Z,99340.78
2023-01-22T01:46:37.043Z,99350.53
2023-01-22T01:49:03.847Z,99342.66
2023-01-22T01:51:34.343Z,99339.75
2023-01-22T01:54:01.228Z,99341.75
2023-01-22T01:56:44.026Z,99330.88
2023-01-22T01:59:12.156Z,99339.75
2023-01-22T02:01:39.278Z,99330.94
2023-01-22T02:04:06.495Z,99338.03
2023-01-22T02:06:33.525Z,99337.38
2023-01-22T02:09:00.590Z,99342.41
2023-01-22T02:11:27.744Z,99340.50
2023-01-22T02:14:17.138Z,99339.91
2023-01-22T02:16:44.439Z,99344.28
2023-01-22T02:19:11.224Z,99345.31
2023-01-22T02:21:44.773Z,99352.31
2023-01-22T02:24:15.837Z,99354.91
2023-01-22T02:26:44.261Z,99357.78
2023-01-22T02:29:12.847Z,99364.53
2023-01-22T02:31:40.513Z,99363.78
2023-01-22T02:34:07.838Z,99363.78
2023-01-22T02:36:35.715Z,99369.06
2023-01-22T02:39:02.620Z,99364.84
2023-01-22T02:41:29.740Z,99373.78
2023-01-22T02:43:56.595Z,99371.72
2023-01-22T02:46:25.335Z,99378.81
2023-01-22T02:48:52.127Z,99381.59
2023-01-22T02:51:19.249Z,99373.72
2023-01-22T02:53:46.048Z,99380.69
2023-01-22T02:56:13.075Z,99375.47
2023-01-22T02:58:40.152Z,99379.81
2023-01-22T03:01:19.068Z,99379.19
2023-01-22T03:03:58.652Z,99375.41
2023-01-22T03:06:26.693Z,99365.53
2023-01-22T03:08:58.094Z,99370.94
2023-01-22T03:11:26.879Z,99362.00
2023-01-22T03:14:12.819Z,99373.53
2023-01-22T03:16:58.472Z,99366.59
2023-01-22T03:19:43.877Z,99363.94
2023-01-22T03:22:10.962Z,99367.47
2023-01-22T03:24:37.770Z,99373.59
2023-01-22T03:27:04.989Z,99368.31
2023-01-22T03:29:31.734Z,99379.91
2023-01-22T03:31:58.960Z,99379.72
2023-01-22T03:34:25.962Z,99379.59
2023-01-22T03:36:53.141Z,99376.34
2023-01-22T03:39:19.931Z,99383.47
2023-01-22T03:41:47.023Z,99378.22
2023-01-22T03:44:14.343Z,99379.00
2023-01-22T03:46:41.390Z,99375.41
2023-01-22T03:49:08.749Z,99373.72
2023-01-22T03:51:35.880Z,99378.16
2023-01-22T03:54:02.652Z,99367.47
2023-01-22T03:56:29.787Z,99366.59
2023-01-22T03:58:56.617Z,99373.66
2023-01-22T04:01:25.368Z,99376.41
2023-01-22T04:03:52.607Z,99386.28
2023-01-22T04:06:19.910Z,99384.28
2023-01-22T04:08:47.614Z,99383.47
2023-01-22T04:11:14.751Z,99386.03
2023-01-22T04:13:42.553Z,99371.00
2023-01-22T04:16:09.996Z,99373.72
2023-01-22T04:18:36.834Z,99367.47
2023-01-22T04:21:04.092Z,99372.81
2023-01-22T04:23:30.859Z,99377.34
2023-01-22T04:25:58.047Z,99389.63
2023-01-22T04:28:24.769Z,99379.00
2023-01-22T04:30:53.274Z,99364.66
2023-01-22T04:33:20.188Z,99368.31
2023-01-22T04:35:54.085Z,99354.97
2023-01-22T04:38:20.922Z,99365.66
2023-01-22T04:40:48.027Z,99353.38
2023-01-22T04:43:14.778Z,99366.59
2023-01-22T04:45:41.850Z,99356.84
2023-01-22T04:48:09.299Z,99360.50
2023-01-22T04:50:36.430Z,99365.78
2023-01-22T04:53:03.424Z,99373.72
2023-01-22T04:55:30.622Z,99382.75
2023-01-22T04:57:58.211Z,99380.09
2023-01-22T05:00:26.040Z,99379.19
2023-01-22T05:02:57.576Z,99381.84
2023-01-22T05:05:24.856Z,99383.72
2023-01-22T05:07:51.705Z,99379.34
2023-01-22T05:10:19.176Z,99380.22
2023-01-22T05:12:46.225Z,99382.94
2023-01-22T05:15:23.609Z,99381.06
2023-01-22T05:17:52.238Z,99381.06
2023-01-22T05:20:19.812Z,99382.94
2023-01-22T05:22:46.803Z,99391.69
2023-01-22T05:25:13.936Z,99387.19
2023-01-22T05:27:40.743Z,99391.81
2023-01-22T05:30:08.494Z,99395.38
2023-01-22T05:32:35.305Z,99395.44
2023-01-22T05:35:02.929Z,99395.38
2023-01-22T05:37:31.304Z,99400.63
2023-01-22T05:39:58.364Z,99394.41
2023-01-22T05:42:25.191Z,99396.09
2023-01-22T05:44:52.307Z,99403.50
2023-01-22T05:47:19.077Z,99394.47
2023-01-22T05:49:46.156Z,99400.63
2023-01-22T05:52:13.032Z,99398.78
2023-01-22T05:54:40.131Z,99397.97
2023-01-22T05:57:06.973Z,99401.56
2023-01-22T05:59:34.099Z,99405.97
2023-01-22T06:02:01.059Z,99403.38
2023-01-22T06:04:28.375Z,99406.09
2023-01-22T06:06:55.112Z,99414.84
2023-01-22T06:09:22.297Z,99416.72
2023-01-22T06:11:49.124Z,99405.97
2023-01-22T06:14:16.425Z,99411.38
2023-01-22T06:16:43.277Z,99419.31
2023-01-22T06:19:10.506Z,99420.25
2023-01-22T06:21:37.256Z,99439.84
2023-01-22T06:24:04.479Z,99437.25
2023-01-22T06:26:31.263Z,99437.19
2023-01-22T06:28:58.384Z,99437.19
2023-01-22T06:31:25.416Z,99438.06
2023-01-22T06:33:53.126Z,99451.47
2023-01-22T06:36:19.853Z,99448.94
2023-01-22T06:38:46.989Z,99450.66
2023-01-22T06:41:13.739Z,99453.47
2023-01-22T06:43:40.792Z,99444.56
2023-01-22T06:46:07.570Z,99448.13
2023-01-22T06:48:34.708Z,99445.47
2023-01-22T06:51:01.525Z,99449.06
2023-01-22T06:53:28.709Z,99463.19
2023-01-22T06:55:55.553Z,99463.06
2023-01-22T06:58:22.617Z,99457.84
2023-01-22T07:00:49.397Z,99456.19
2023-01-22T07:03:16.490Z,99459.72
2023-01-22T07:05:43.225Z,99461.47
2023-01-22T07:08:16.490Z,99452.56
2023-01-22T07:10:43.257Z,99453.47
2023-01-22T07:13:10.489Z,99456.09
2023-01-22T07:15:37.328Z,99457.00
2023-01-22T07:18:04.499Z,99466.75
2023-01-22T07:20:31.260Z,99471.19
2023-01-22T07:23:00.239Z,99473.75
2023-01-22T07:25:27.601Z,99481.03
2023-01-22T07:28:04.296Z,99486.31
2023-01-22T07:30:31.155Z,99496.13
2023-01-22T07:33:00.316Z,99493.50
2023-01-22T07:35:27.426Z,99498.91
2023-01-22T07:37:55.228Z,99497.84
2023-01-22T07:40:24.217Z,99506.84
2023-01-22T07:42:51.865Z,99517.53
2023-01-22T07:45:19.402Z,99518.28
2023-01-22T07:47:54.666Z,99519.31
2023-01-22T07:50:24.902Z,99522.72
2023-01-22T07:52:51.948Z,99516.56
2023-01-22T07:55:18.780Z,99522.66
2023-01-22T07:57:45.837Z,99521.06
2023-01-22T08:00:13.094Z,99516.47
2023-01-22T08:02:40.186Z,99521.81
2023-01-22T08:05:07.575Z,99519.19
2023-01-22T08:07:34.646Z,99524.53
2023-01-22T08:10:01.451Z,99521.00
2023-01-22T08:12:28.617Z,99519.19
2023-01-22T08:14:55.370Z,99514.88
2023-01-22T08:17:22.494Z,99525.34
2023-01-22T08:19:49.262Z,99519.13
2023-01-22T08:22:16.284Z,99521.75
2023-01-22T08:24:43.197Z,99516.53
2023-01-22T08:27:10.269Z,99511.19
2023-01-22T08:29:37.062Z,99521.00
2023-01-22T08:32:04.320Z,99510.25
2023-01-22T08:34:31.132Z,99503.19
2023-01-22T08:36:58.202Z,99507.66
2023-01-22T08:39:25.003Z,99505.03
2023-01-22T08:41:57.368Z,99509.47
2023-01-22T08:44:24.837Z,99509.47
2023-01-22T08:46:52.100Z,99516.47
2023-01-22T08:49:18.906Z,99512.88
2023-01-22T08:51:45.954Z,99515.59
2023-01-22T08:54:12.700Z,99512.88
2023-01-22T08:56:39.766Z,99506.59
2023-01-22T08:59:06.745Z,99512.94
2023-01-22T09:01:33.966Z,99512.94
2023-01-22T09:04:00.706Z,99509.53
2023-01-22T09:06:28.193Z,99517.59
2023-01-22T09:08:55.339Z,99520.06
2023-01-22T09:11:22.429Z,99515.59
2023-01-22T09:13:49.313Z,99523.59
2023-01-22T09:16:16.395Z,99520.13
2023-01-22T09:18:43.226Z,99522.81
2023-01-22T09:21:10.363Z,99513.00
2023-01-22T09:23:37.115Z,99527.25
2023-01-22T09:26:04.321Z,99524.47
2023-01-22T09:28:31.300Z,99529.94
2023-01-22T09:30:58.420Z,99527.31
2023-01-22T09:33:25.201Z,99527.25
2023-01-22T09:35:52.281Z,99528.94
2023-01-22T09:38:19.050Z,99530.88
2023-01-22T09:40:54.896Z,99537.13
2023-01-22T09:43:25.068Z,99536.06
2023-01-22T09:45:53.663Z,99536.97
2023-01-22T09:48:21.080Z,99528.88
2023-01-22T09:50:48.153Z,99530.66
2023-01-22T09:53:17.137Z,99532.41
2023-01-22T09:55:46.416Z,99536.91
2023-01-22T09:58:18.499Z,99538.69
2023-01-22T10:00:49.147Z,99545.78
2023-01-22T10:03:36.507Z,99543.22
2023-01-22T10:06:21.433Z,99543.09
2023-01-22T10:09:00.633Z,99549.34
2023-01-22T10:11:27.755Z,99540.38
2023-01-22T10:13:56.429Z,99544.69
2023-01-22T10:16:23.592Z,99544.66
2023-01-22T10:18:53.201Z,99549.25
2023-01-22T10:21:32.131Z,99560.66
2023-01-22T10:23:59.063Z,99546.44
2023-01-22T10:26:36.563Z,99549.13
2023-01-22T10:29:06.069Z,99553.50
2023-01-22T10:31:39.893Z,99555.47
2023-01-22T10:34:17.445Z,99558.13
2023-01-22T10:36:51.885Z,99554.53
2023-01-22T10:39:18.915Z,99546.41
2023-01-22T10:41:46.832Z,99544.66
2023-01-22T10:44:16.615Z,99547.25
2023-01-22T10:46:43.716Z,99535.72
2023-01-22T10:49:30.165Z,99543.66
2023-01-22T10:51:59.075Z,99544.59
2023-01-22T10:54:25.816Z,99541.78
2023-01-22T10:56:53.519Z,99532.13
2023-01-22T10:59:26.468Z,99538.28
2023-01-22T11:02:15.839Z,99536.56
2023-01-22T11:04:42.697Z,99522.25
2023-01-22T11:07:18.298Z,99528.38
2023-01-22T11:09:49.540Z,99525.78
2023-01-22T11:12:19.650Z,99533.84
2023-01-22T11:14:46.665Z,99541.69
2023-01-22T11:17:21.260Z,99535.47
2023-01-22T11:20:10.344Z,99533.84
2023-01-22T11:22:38.957Z,99539.00
2023-01-22T11:25:09.328Z,99531.06
2023-01-22T11:28:06.027Z,99533.78
2023-01-22T11:30:56.041Z,99536.41
2023-01-22T11:33:44.635Z,99530.94
2023-01-22T11:36:19.417Z,99533.78
2023-01-22T11:38:53.628Z,99533.91
2023-01-22T11:41:36.240Z,99524.91
2023-01-22T11:44:03.402Z,99524.81
2023-01-22T11:46:42.516Z,99518.63
2023-01-22T11:49:50.971Z,99520.31
2023-01-22T11:52:42.457Z,99530.94
2023-01-22T11:55:39.749Z,99522.06
2023-01-22T11:58:25.850Z,99523.00
2023-01-22T12:01:29.371Z,99535.59
2023-01-22T12:04:07.752Z,99532.31
2023-01-22T12:06:34.803Z,99542.53
2023-01-22T12:09:15.251Z,99535.47
2023-01-22T12:12:00.881Z,99547.81
2023-01-22T12:14:36.449Z,99532.81
2023-01-22T12:17:03.635Z,99536.50
2023-01-22T12:19:33.239Z,99531.22
2023-01-22T12:22:22.921Z,99540.25
2023-01-22T12:25:21.058Z,99540.44
2023-01-22T12:27:53.157Z,99553.66
2023-01-22T12:30:23.799Z,99570.56
2023-01-22T12:33:02.317Z,99573.34
2023-01-22T12:35:30.724Z,99571.44
2023-01-22T12:38:06.914Z,99562.59
2023-01-22T12:41:10.992Z,99565.31
2023-01-22T12:43:50.537Z,99563.59
2023-01-22T12:46:26.512Z,99576.09
2023-01-22T12:49:09.515Z,99567.06
2023-01-22T12:51:41.377Z,99572.47
2023-01-22T12:54:19.727Z,99566.28
2023-01-22T12:56:47.226Z,99565.53
2023-01-22T12:59:41.299Z,99580.66
2023-01-22T13:02:26.731Z,99579.63
2023-01-22T13:04:54.485Z,99571.69
2023-01-22T13:07:36.361Z,99572.59
2023-01-22T13:10:25.287Z,99583.03
2023-01-22T13:12:53.560Z,99580.44
2023-01-22T13:15:34.250Z,99596.44
2023-01-22T13:18:15.161Z,99589.50
2023-01-22T13:21:09.453Z,99594.78
2023-01-22T13:23:40.866Z,99602.84
2023-01-22T13:26:08.121Z,99600.19
2023-01-22T13:28:34.982Z,99601.91
2023-01-22T13:31:04.315Z,99597.38
2023-01-22T13:33:31.668Z,99593.91
2023-01-22T13:35:59.009Z,99599.19
2023-01-22T13:38:29.853Z,99605.47
2023-01-22T13:41:01.413Z,99607.19
2023-01-22T13:43:28.276Z,99597.53
2023-01-22T13:45:56.309Z,99593.03
2023-01-22T13:48:24.433Z,99593.09
2023-01-22T13:50:57.487Z,99604.59
2023-01-22T13:53:40.692Z,99612.53
2023-01-22T13:56:11.130Z,99615.38
2023-01-22T13:58:48.285Z,99604.59
2023-01-22T14:01:30.932Z,99605.47
2023-01-22T14:04:02.311Z,99606.34
2023-01-22T14:06:29.626Z,99607.19
2023-01-22T14:08:57.525Z,99613.41
2023-01-22T14:11:24.924Z,99624.22
2023-01-22T14:13:52.786Z,99621.50
2023-01-22T14:16:20.311Z,99640.25
2023-01-22T14:18:47.528Z,99638.44
2023-01-22T14:21:15.058Z,99637.63
2023-01-22T14:23:42.861Z,99641.91
2023-01-22T14:26:09.954Z,99644.84
2023-01-22T14:28:36.768Z,99644.75
2023-01-22T14:31:04.225Z,99650.78
2023-01-22T14:33:32.348Z,99648.19
2023-01-22T14:35:59.508Z,99650.97
2023-01-22T14:38:26.458Z,99660.66
2023-01-22T14:40:53.675Z,99660.66
2023-01-22T14:43:20.576Z,99653.53
2023-01-22T14:45:47.855Z,99653.59
2023-01-22T14:48:19.355Z,99660.66
2023-01-22T14:50:46.745Z,99663.22
2023-01-22T14:53:13.932Z,99665.09
2023-01-22T14:55:42.608Z,99674.81
2023-01-22T14:58:10.166Z,99672.22
2023-01-22T15:00:38.026Z,99676.69
2023-01-22T15:03:05.026Z,99678.44
2023-01-22T15:05:34.630Z,99687.25
2023-01-22T15:08:02.442Z,99689.91
2023-01-22T15:10:29.488Z,99692.75
2023-01-22T15:12:56.358Z,99701.59
2023-01-22T15:15:26.295Z,99698.00
2023-01-22T15:17:53.794Z,99709.63
2023-01-22T15:20:21.447Z,99702.31
2023-01-22T15:22:49.653Z,99712.28
2023-01-22T15:25:17.131Z,99706.06
2023-01-22T15:27:44.664Z,99720.41
2023-01-22T15:30:14.117Z,99721.22
2023-01-22T15:32:41.084Z,99729.22
2023-01-22T15:35:08.641Z,99720.34
2023-01-22T15:37:35.468Z,99727.53
2023-01-22T15:40:02.603Z,99738.09
2023-01-22T15:42:29.476Z,99741.72
2023-01-22T15:44:56.564Z,99734.56
2023-01-22T15:47:23.348Z,99728.31
2023-01-22T15:49:50.420Z,99732.00
2023-01-22T15:52:17.263Z,99731.91
2023-01-22T15:54:44.386Z,99731.09
2023-01-22T15:57:11.175Z,99732.75
2023-01-22T15:59:41.434Z,99733.66
2023-01-22T16:02:11.291Z,99743.44
2023-01-22T16:04:38.428Z,99739.16
2023-01-22T16:07:05.190Z,99742.69
2023-01-22T16:09:32.477Z,99751.44
2023-01-22T16:11:59.394Z,99747.91
2023-01-22T16:14:28.358Z,99757.78
2023-01-22T16:16:55.320Z,99758.59
2023-01-22T16:19:22.450Z,99761.31
2023-01-22T16:21:49.306Z,99763.94
2023-01-22T16:24:16.385Z,99756.75
2023-01-22T16:26:43.126Z,99761.16
2023-01-22T16:29:10.267Z,99758.66
2023-01-22T16:31:38.363Z,99764.81
2023-01-22T16:34:13.539Z,99764.91
2023-01-22T16:36:40.960Z,99767.41
2023-01-22T16:39:08.436Z,99767.41
2023-01-22T16:41:36.246Z,99772.81
2023-01-22T16:44:07.662Z,99782.59
2023-01-22T16:46:35.660Z,99782.41
2023-01-22T16:49:06.985Z,99788.69
2023-01-22T16:51:35.915Z,99790.50
2023-01-22T16:54:03.069Z,99795.00
2023-01-22T16:56:29.917Z,99793.22
2023-01-22T16:58:57.408Z,99798.50
2023-01-22T17:01:24.278Z,99802.09
2023-01-22T17:03:51.415Z,99808.47
2023-01-22T17:06:27.136Z,99804.09
2023-01-22T17:08:54.324Z,99824.44
2023-01-22T17:11:21.315Z,99820.88
2023-01-22T17:13:48.571Z,99818.09
2023-01-22T17:16:15.768Z,99825.31
2023-01-22T17:18:42.929Z,99823.56
2023-01-22T17:21:11.428Z,99822.63
2023-01-22T17:23:38.672Z,99821.63
2023-01-22T17:26:09.950Z,99820.19
2023-01-22T17:28:37.662Z,99825.34
2023-01-22T17:31:12.139Z,99831.81
2023-01-22T17:33:39.510Z,99836.16
2023-01-22T17:36:06.970Z,99833.47
2023-01-22T17:38:38.332Z,99841.38
2023-01-22T17:41:24.889Z,99851.19
2023-01-22T17:43:52.657Z,99857.56
2023-01-22T17:46:21.331Z,99868.25
2023-01-22T17:48:48.960Z,99869.00
2023-01-22T17:51:17.441Z,99870.09
2023-01-22T17:53:45.367Z,99867.28
2023-01-22T17:56:16.900Z,99878.00
2023-01-22T17:58:54.097Z,99867.28
2023-01-22T18:01:21.982Z,99870.81
2023-01-22T18:03:49.337Z,99884.13
2023-01-22T18:06:16.235Z,99879.69
2023-01-22T18:08:43.516Z,99886.03
2023-01-22T18:11:15.464Z,99891.31
2023-01-22T18:13:42.668Z,99894.03
2023-01-22T18:16:12.411Z,99894.03
2023-01-22T18:18:39.525Z,99897.41
2023-01-22T18:21:07.010Z,99893.94
2023-01-22T18:23:35.691Z,99901.00
2023-01-22T18:26:05.949Z,99907.16
2023-01-22T18:28:33.487Z,99903.66
2023-01-22T18:31:19.435Z,99904.47
2023-01-22T18:33:48.230Z,99906.28
2023-01-22T18:36:17.031Z,99913.53
2023-01-22T18:38:44.337Z,99915.28
2023-01-22T18:41:15.916Z,99926.06
2023-01-22T18:43:43.243Z,99926.94
2023-01-22T18:46:11.841Z,99927.88
2023-01-22T18:48:40.131Z,99933.94
2023-01-22T18:51:08.996Z,99935.91
2023-01-22T18:53:37.116Z,99938.56
2023-01-22T18:56:05.165Z,99935.72
2023-01-22T18:58:34.274Z,99939.38
2023-01-22T19:01:15.475Z,99942.88
2023-01-22T19:03:43.999Z,99942.88
2023-01-22T19:06:16.213Z,99937.56
2023-01-22T19:08:44.967Z,99943.78
2023-01-22T19:11:12.303Z,99951.75
2023-01-22T19:13:40.295Z,99949.13
2023-01-22T19:16:12.185Z,99954.34
2023-01-22T19:18:42.374Z,99949.13
2023-01-22T19:21:17.340Z,99948.06
2023-01-22T19:23:49.355Z,99951.78
2023-01-22T19:26:18.447Z,99943.81
2023-01-22T19:28:45.666Z,99951.75
2023-01-22T19:31:23.237Z,99950.91
2023-01-22T19:33:51.400Z,99953.44
2023-01-22T19:36:18.506Z,99958.75
2023-01-22T19:38:45.723Z,99959.66
2023-01-22T19:41:12.548Z,99957.03
2023-01-22T19:43:39.757Z,99967.56
2023-01-22T19:46:08.313Z,99961.31
2023-01-22T19:48:35.827Z,99963.91
2023-01-22T19:51:05.529Z,99955.03
2023-01-22T19:53:33.757Z,99959.56
2023-01-22T19:56:00.703Z,99949.78
2023-01-22T19:58:28.361Z,99949.63
2023-01-22T20:00:58.159Z,99953.22
2023-01-22T20:03:27.369Z,99958.56
2023-01-22T20:05:54.661Z,99965.81
2023-01-22T20:08:22.008Z,99971.09
2023-01-22T20:10:51.147Z,99974.66
2023-01-22T20:13:18.428Z,99979.94
2023-01-22T20:15:45.417Z,99981.69
2023-01-22T20:18:12.584Z,99982.81
2023-01-22T20:20:39.489Z,99988.13
2023-01-22T20:23:06.761Z,99985.34
2023-01-22T20:25:33.643Z,99994.22
2023-01-22T20:28:01.009Z,99989.13
2023-01-22T20:30:27.875Z,99990.13
2023-01-22T20:32:56.649Z,99981.88
2023-01-22T20:35:23.718Z,99983.69
2023-01-22T20:37:50.936Z,99987.22
2023-01-22T20:40:18.162Z,99998.91
2023-01-22T20:42:45.580Z,100000.56
2023-01-22T20:45:12.527Z,100008.50
2023-01-22T20:47:39.715Z,100000.53
2023-01-22T20:50:07.102Z,100005.06
2023-01-22T20:52:34.370Z,99998.63
2023-01-22T20:55:02.616Z,100003.09
2023-01-22T20:57:30.411Z,100003.19
2023-01-22T20:59:57.312Z,100002.28
2023-01-22T21:02:24.609Z,100006.63
2023-01-22T21:04:52.825Z,100006.59
2023-01-22T21:07:20.169Z,100011.13
2023-01-22T21:09:47.111Z,100007.56
2023-01-22T21:12:14.346Z,100015.69
2023-01-22T21:14:41.166Z,100022.78
2023-01-22T21:17:08.400Z,100020.88
2023-01-22T21:19:35.396Z,100032.47
2023-01-22T21:22:04.017Z,100028.19
2023-01-22T21:24:31.212Z,100030.75
2023-01-22T21:26:58.385Z,100037.00
2023-01-22T21:29:25.484Z,100045.97
2023-01-22T21:31:52.878Z,100044.25
2023-01-22T21:34:24.180Z,100057.56
2023-01-22T21:36:53.712Z,100068.25
2023-01-22T21:39:24.846Z,100073.59
2023-01-22T21:41:51.885Z,100077.25
2023-01-22T21:44:54.890Z,100080.69
2023-01-22T21:47:21.753Z,100091.28
2023-01-22T21:49:50.032Z,100099.31
2023-01-22T21:52:16.893Z,100104.69
2023-01-22T21:54:44.107Z,100099.44
2023-01-22T21:57:12.676Z,100092.22
2023-01-22T21:59:40.511Z,100102.78
2023-01-22T22:02:07.595Z,100102.91
2023-01-22T22:04:34.762Z,100108.31
2023-01-22T22:07:01.543Z,100104.56
2023-01-22T22:09:28.784Z,100108.13
2023-01-22T22:11:56.461Z,100105.63
2023-01-22T22:14:24.438Z,100105.63
2023-01-22T22:16:52.113Z,100107.25
2023-01-22T22:19:19.525Z,100108.31
2023-01-22T22:21:46.545Z,100108.31
2023-01-22T22:24:13.958Z,100101.00
2023-01-22T22:26:40.793Z,100101.16
2023-01-22T22:29:08.157Z,100098.34
2023-01-22T22:31:35.061Z,100095.66
2023-01-22T22:34:02.289Z,100093.00
2023-01-22T22:36:29.789Z,100092.22
2023-01-22T22:38:57.010Z,100092.91
2023-01-22T22:41:28.540Z,100099.16
2023-01-22T22:43:55.676Z,100092.09
2023-01-22T22:46:23.284Z,100084.09
2023-01-22T22:48:50.786Z,100074.31
2023-01-22T22:51:23.024Z,100079.59
2023-01-22T22:53:54.965Z,100077.13
2023-01-22T22:56:22.093Z,100064.63
2023-01-22T22:58:49.384Z,100075.25
2023-01-22T23:01:17.887Z,100083.13
2023-01-22T23:03:44.967Z,100088.66
2023-01-22T23:06:16.680Z,100090.41
2023-01-22T23:08:46.155Z,100087.66
2023-01-22T23:11:15.418Z,100090.38
2023-01-22T23:13:46.761Z,100089.50
2023-01-22T23:16:14.423Z,100091.97
2023-01-22T23:18:41.548Z,100108.94
2023-01-22T23:21:09.968Z,100117.94
2023-01-22T23:23:37.299Z,100120.66
2023-01-22T23:26:11.606Z,100110.72
2023-01-22T23:28:38.979Z,100109.06
2023-01-22T23:31:07.285Z,100102.75
2023-01-22T23:33:34.611Z,100116.16
2023-01-22T23:36:06.081Z,100113.38
2023-01-22T23:38:33.206Z,100117.81
2023-01-22T23:41:02.038Z,100122.44
2023-01-22T23:43:29.399Z,100129.63
2023-01-22T23:45:56.687Z,100128.69
2023-01-22T23:48:23.880Z,100127.78
2023-01-22T23:50:51.346Z,100132.09
2023-01-22T23:53:18.550Z,100134.97
2023-01-22T23:55:45.507Z,100142.84
2023-01-22T23:58:12.633Z,100142.00
